createdAt,value
2022-08-16T00:01:24.684Z,62.00
2022-08-16T00:04:11.227Z,61.80
2022-08-16T00:07:03.875Z,61.90
2022-08-16T00:09:52.326Z,61.70
2022-08-16T00:12:47.253Z,62.00
2022-08-16T00:15:52.042Z,61.30
2022-08-16T00:18:51.776Z,61.90
2022-08-16T00:21:45.798Z,61.80
2022-08-16T00:24:37.586Z,62.30
2022-08-16T00:27:32.488Z,62.00
2022-08-16T00:30:48.541Z,61.60
2022-08-16T00:33:42.257Z,62.00
2022-08-16T00:36:36.789Z,62.00
2022-08-16T00:39:35.179Z,62.30
2022-08-16T00:42:30.400Z,62.30
2022-08-16T00:45:35.661Z,62.90
2022-08-16T00:48:30.712Z,62.60
2022-08-16T00:51:20.164Z,62.80
2022-08-16T00:54:11.599Z,62.80
2022-08-16T00:57:02.460Z,62.50
2022-08-16T00:59:54.594Z,62.40
2022-08-16T01:02:47.223Z,62.20
2022-08-16T01:05:41.666Z,62.40
2022-08-16T01:08:34.985Z,62.10
2022-08-16T01:11:25.325Z,63.00
2022-08-16T01:14:34.837Z,62.80
2022-08-16T01:17:24.298Z,62.40
2022-08-16T01:20:24.511Z,62.70
2022-08-16T01:23:58.643Z,62.50
2022-08-16T01:26:55.024Z,62.50
2022-08-16T01:30:19.911Z,62.90
2022-08-16T01:33:14.581Z,62.80
2022-08-16T01:36:11.554Z,63.10
2022-08-16T01:39:08.209Z,63.30
2022-08-16T01:41:57.888Z,63.50
2022-08-16T01:44:52.311Z,62.70
2022-08-16T01:47:49.418Z,63.40
2022-08-16T01:51:05.026Z,63.50
2022-08-16T01:53:55.473Z,63.40
2022-08-16T01:56:44.362Z,63.30
2022-08-16T01:59:37.536Z,63.60
2022-08-16T02:02:28.374Z,64.00
2022-08-16T02:05:18.043Z,64.60
2022-08-16T02:08:06.063Z,64.60
2022-08-16T02:11:00.963Z,64.70
2022-08-16T02:13:54.922Z,64.60
2022-08-16T02:16:45.744Z,64.60
2022-08-16T02:20:00.159Z,64.30
2022-08-16T02:22:49.335Z,64.20
2022-08-16T02:25:52.295Z,64.60
2022-08-16T02:28:47.107Z,64.70
2022-08-16T02:32:03.068Z,64.50
2022-08-16T02:34:56.461Z,64.20
2022-08-16T02:37:52.289Z,63.70
2022-08-16T02:40:45.706Z,64.60
2022-08-16T02:43:34.054Z,64.40
2022-08-16T02:46:33.299Z,64.60
2022-08-16T02:49:19.243Z,65.10
2022-08-16T02:52:09.014Z,65.40
2022-08-16T02:54:55.385Z,65.20
2022-08-16T02:57:42.331Z,65.60
2022-08-16T03:00:39.179Z,65.40
2022-08-16T03:04:49.538Z,65.30
2022-08-16T03:06:41.443Z,65.40
2022-08-16T03:09:28.698Z,65.20
2022-08-16T03:12:16.466Z,65.30
2022-08-16T03:15:04.752Z,65.40
2022-08-16T03:17:53.325Z,64.60
2022-08-16T03:20:40.225Z,65.00
2022-08-16T03:23:26.094Z,65.70
2022-08-16T03:26:21.526Z,65.50
2022-08-16T03:29:12.004Z,66.60
2022-08-16T03:31:59.586Z,66.70
2022-08-16T03:34:49.908Z,67.20
2022-08-16T03:38:01.823Z,66.00
2022-08-16T03:40:42.423Z,66.10
2022-08-16T03:43:51.034Z,66.90
2022-08-16T03:46:47.934Z,66.80
2022-08-16T03:49:37.160Z,66.70
2022-08-16T03:52:23.909Z,66.70
2022-08-16T03:55:16.754Z,67.10
2022-08-16T03:58:02.925Z,66.60
2022-08-16T04:00:56.946Z,66.80
2022-08-16T04:03:44.740Z,68.00
2022-08-16T04:06:30.066Z,68.10
2022-08-16T04:09:15.407Z,68.00
2022-08-16T04:12:01.304Z,67.30
2022-08-16T04:14:48.148Z,67.90
2022-08-16T04:17:35.052Z,67.70
2022-08-16T04:20:31.421Z,67.70
2022-08-16T04:23:19.285Z,67.80
2022-08-16T04:26:06.327Z,68.30
2022-08-16T04:28:56.749Z,68.70
2022-08-16T04:31:58.008Z,68.40
2022-08-16T04:34:43.616Z,68.40
2022-08-16T04:37:29.948Z,68.90
2022-08-16T04:40:20.641Z,69.10
2022-08-16T04:43:08.267Z,69.80
2022-08-16T04:46:00.361Z,69.60
2022-08-16T04:48:46.121Z,70.00
2022-08-16T04:51:36.164Z,69.70
2022-08-16T04:54:21.624Z,69.00
2022-08-16T04:57:07.206Z,69.70
2022-08-16T04:59:54.296Z,70.10
2022-08-16T05:02:56.083Z,69.70
2022-08-16T05:05:45.469Z,70.10
2022-08-16T05:08:47.175Z,69.80
2022-08-16T05:11:33.159Z,70.50
2022-08-16T05:14:20.176Z,71.30
2022-08-16T05:17:24.836Z,70.40
2022-08-16T05:20:39.628Z,70.10
2022-08-16T05:23:19.641Z,71.30
2022-08-16T05:26:06.342Z,71.30
2022-08-16T05:29:06.779Z,72.00
2022-08-16T05:31:56.588Z,72.10
2022-08-16T05:34:41.974Z,71.40
2022-08-16T05:37:28.764Z,70.50
2022-08-16T05:40:25.169Z,72.00
2022-08-16T05:43:12.268Z,71.40
2022-08-16T05:46:00.507Z,72.10
2022-08-16T05:48:46.423Z,72.50
2022-08-16T05:51:41.677Z,71.30
2022-08-16T05:54:28.521Z,72.30
2022-08-16T05:57:18.483Z,72.20
2022-08-16T06:00:10.007Z,72.10
2022-08-16T06:02:55.335Z,72.40
2022-08-16T06:05:41.717Z,72.70
2022-08-16T06:08:32.476Z,72.60
2022-08-16T06:11:27.771Z,72.20
2022-08-16T06:14:14.984Z,72.30
2022-08-16T06:17:05.364Z,72.60
2022-08-16T06:19:51.291Z,72.50
2022-08-16T06:22:57.719Z,72.20
2022-08-16T06:25:44.004Z,72.20
2022-08-16T06:28:38.367Z,72.50
2022-08-16T06:31:24.939Z,72.80
2022-08-16T06:34:55.442Z,72.70
2022-08-16T06:37:15.800Z,73.00
2022-08-16T06:40:01.297Z,73.10
2022-08-16T06:42:48.726Z,73.90
2022-08-16T06:45:37.900Z,73.50
2022-08-16T06:48:33.042Z,73.80
2022-08-16T06:51:18.953Z,73.50
2022-08-16T06:54:05.083Z,74.00
2022-08-16T06:56:52.329Z,74.10
2022-08-16T06:59:52.843Z,74.50
2022-08-16T07:02:51.212Z,74.00
2022-08-16T07:05:41.525Z,73.40
2022-08-16T07:08:27.934Z,74.40
2022-08-16T07:11:15.089Z,74.00
2022-08-16T07:14:24.102Z,74.60
2022-08-16T07:17:08.272Z,74.30
2022-08-16T07:20:03.054Z,74.20
2022-08-16T07:23:02.473Z,74.20
2022-08-16T07:25:59.147Z,74.40
2022-08-16T07:28:45.280Z,74.40
2022-08-16T07:31:37.463Z,74.30
2022-08-16T07:34:35.345Z,74.10
2022-08-16T07:37:23.252Z,74.80
2022-08-16T07:40:11.631Z,73.90
2022-08-16T07:42:58.348Z,74.00
2022-08-16T07:45:44.179Z,73.40
2022-08-16T07:48:31.831Z,73.20
2022-08-16T07:51:17.388Z,73.50
2022-08-16T07:54:09.347Z,71.90
2022-08-16T07:56:55.815Z,73.00
2022-08-16T07:59:45.633Z,72.00
2022-08-16T08:02:31.691Z,72.10
2022-08-16T08:05:17.382Z,71.30
2022-08-16T08:08:49.014Z,71.10
2022-08-16T08:11:18.193Z,70.90
2022-08-16T08:14:06.779Z,70.70
2022-08-16T08:16:52.347Z,69.80
2022-08-16T08:19:40.344Z,69.70
2022-08-16T08:22:25.999Z,69.10
2022-08-16T08:25:13.731Z,68.90
2022-08-16T08:28:02.680Z,68.50
2022-08-16T08:30:52.071Z,67.90
2022-08-16T08:33:47.505Z,67.60
2022-08-16T08:36:37.337Z,67.80
2022-08-16T08:39:23.001Z,67.00
2022-08-16T08:42:08.862Z,66.90
2022-08-16T08:44:54.167Z,66.00
2022-08-16T08:47:40.468Z,65.80
2022-08-16T08:50:31.723Z,65.50
2022-08-16T08:53:17.928Z,65.40
2022-08-16T08:56:22.811Z,64.80
2022-08-16T08:59:12.993Z,64.20
2022-08-16T09:02:01.860Z,64.00
2022-08-16T09:04:48.705Z,63.80
2022-08-16T09:07:34.547Z,63.40
2022-08-16T09:10:40.947Z,63.60
2022-08-16T09:13:27.198Z,63.10
2022-08-16T09:17:02.798Z,63.10
2022-08-16T09:19:32.884Z,63.00
2022-08-16T09:22:21.299Z,62.10
2022-08-16T09:25:11.223Z,61.80
2022-08-16T09:28:02.788Z,62.50
2022-08-16T09:30:55.789Z,61.60
2022-08-16T09:33:43.142Z,61.00
2022-08-16T09:36:31.854Z,60.70
2022-08-16T09:39:18.286Z,60.90
2022-08-16T09:42:03.663Z,60.70
2022-08-16T09:45:11.228Z,60.40
2022-08-16T09:47:56.229Z,60.40
2022-08-16T09:50:44.597Z,60.50
2022-08-16T09:53:32.332Z,61.00
2022-08-16T09:56:28.836Z,60.30
2022-08-16T09:59:16.859Z,60.50
2022-08-16T10:02:26.654Z,60.00
2022-08-16T10:05:11.375Z,59.20
2022-08-16T10:07:56.807Z,59.00
2022-08-16T10:11:02.807Z,58.50
2022-08-16T10:13:48.055Z,58.50
2022-08-16T10:16:34.039Z,58.40
2022-08-16T10:19:24.490Z,58.60
2022-08-16T10:22:13.099Z,58.90
2022-08-16T10:25:00.021Z,59.40
2022-08-16T10:27:53.191Z,59.40
2022-08-16T10:30:43.196Z,58.20
2022-08-16T10:33:33.512Z,57.70
2022-08-16T10:36:38.133Z,58.00
2022-08-16T10:39:24.484Z,58.30
2022-08-16T10:42:13.409Z,58.40
2022-08-16T10:45:00.249Z,58.10
2022-08-16T10:47:45.316Z,58.20
2022-08-16T10:50:32.646Z,58.00
2022-08-16T10:53:18.049Z,57.50
2022-08-16T10:56:51.908Z,57.00
2022-08-16T10:59:32.650Z,57.00
2022-08-16T11:03:37.681Z,56.80
2022-08-16T11:05:59.105Z,56.70
2022-08-16T11:08:41.908Z,56.70
2022-08-16T11:11:30.305Z,57.20
2022-08-16T11:14:16.994Z,57.40
2022-08-16T11:17:09.195Z,57.70
2022-08-16T11:20:41.620Z,58.10
2022-08-16T11:23:02.332Z,57.40
2022-08-16T11:26:23.330Z,56.90
2022-08-16T11:32:05.479Z,55.50
2022-08-16T11:35:13.438Z,55.60
2022-08-16T11:38:42.260Z,56.40
2022-08-16T11:41:29.419Z,56.10
2022-08-16T11:44:20.472Z,55.50
2022-08-16T11:47:22.785Z,54.90
2022-08-16T11:50:09.240Z,54.80
2022-08-16T11:52:54.535Z,53.50
2022-08-16T11:55:40.408Z,52.60
2022-08-16T11:58:33.907Z,52.30
2022-08-16T12:01:19.811Z,51.70
2022-08-16T12:04:15.485Z,51.10
2022-08-16T12:07:02.582Z,50.90
2022-08-16T12:09:49.251Z,50.50
2022-08-16T12:12:38.544Z,51.10
2022-08-16T12:15:26.380Z,51.60
2022-08-16T12:18:20.638Z,51.70
2022-08-16T12:21:07.170Z,51.80
2022-08-16T12:23:55.119Z,52.30
2022-08-16T12:26:41.147Z,52.50
2022-08-16T12:29:29.340Z,52.50
2022-08-16T12:32:38.137Z,52.80
2022-08-16T12:35:21.826Z,52.60
2022-08-16T12:38:38.191Z,52.20
2022-08-16T12:41:13.619Z,52.40
2022-08-16T12:44:09.696Z,51.60
2022-08-16T12:47:14.781Z,50.50
2022-08-16T12:50:00.080Z,50.20
2022-08-16T12:52:52.901Z,49.50
2022-08-16T12:55:42.057Z,49.80
2022-08-16T12:58:49.350Z,50.20
2022-08-16T13:01:36.871Z,50.00
2022-08-16T13:04:24.937Z,49.90
2022-08-16T13:07:10.549Z,50.30
2022-08-16T13:10:21.062Z,50.00
2022-08-16T13:13:21.067Z,49.80
2022-08-16T13:16:15.948Z,50.50
2022-08-16T13:19:06.159Z,50.40
2022-08-16T13:21:52.470Z,50.50
2022-08-16T13:24:38.071Z,50.90
2022-08-16T13:28:14.888Z,51.50
2022-08-16T13:30:41.162Z,51.70
2022-08-16T13:33:31.234Z,52.20
2022-08-16T13:36:32.275Z,51.70
2022-08-16T13:39:22.015Z,51.60
2022-08-16T13:42:11.494Z,51.30
2022-08-16T13:44:58.489Z,51.30
2022-08-16T13:47:44.184Z,51.40
2022-08-16T13:50:31.309Z,51.60
2022-08-16T13:53:34.855Z,51.80
2022-08-16T13:56:25.038Z,51.70
2022-08-16T13:59:14.311Z,51.20
2022-08-16T14:02:07.899Z,50.70
2022-08-16T14:05:05.452Z,51.00
2022-08-16T14:07:52.813Z,51.30
2022-08-16T14:10:38.115Z,50.80
2022-08-16T14:13:23.915Z,51.00
2022-08-16T14:16:23.432Z,51.30
2022-08-16T14:19:10.984Z,51.60
2022-08-16T14:22:14.344Z,51.70
2022-08-16T14:25:10.113Z,51.30
2022-08-16T14:27:56.019Z,51.60
2022-08-16T14:30:41.835Z,51.70
2022-08-16T14:33:27.217Z,51.40
2022-08-16T14:36:18.902Z,51.20
2022-08-16T14:39:14.762Z,51.00
2022-08-16T14:42:13.524Z,50.70
2022-08-16T14:45:00.225Z,50.60
2022-08-16T14:47:45.963Z,50.50
2022-08-16T14:50:35.310Z,50.70
2022-08-16T14:53:23.564Z,50.70
2022-08-16T14:56:08.707Z,50.60
2022-08-16T14:59:03.103Z,50.80
2022-08-16T15:01:59.917Z,50.50
2022-08-16T15:04:47.935Z,50.40
2022-08-16T15:07:35.337Z,50.10
2022-08-16T15:10:23.982Z,49.70
2022-08-16T15:13:10.762Z,50.30
2022-08-16T15:16:02.510Z,49.80
2022-08-16T15:18:48.977Z,49.90
2022-08-16T15:21:36.037Z,50.10
2022-08-16T15:24:22.894Z,49.90
2022-08-16T15:27:08.523Z,50.20
2022-08-16T15:29:56.949Z,50.90
2022-08-16T15:32:42.283Z,49.40
2022-08-16T15:35:31.749Z,49.40
2022-08-16T15:38:54.603Z,49.70
2022-08-16T15:41:51.970Z,49.20
2022-08-16T15:44:44.693Z,48.80
2022-08-16T15:47:37.671Z,48.70
2022-08-16T15:50:24.757Z,49.40
2022-08-16T15:53:17.662Z,49.30
2022-08-16T15:56:03.266Z,48.90
2022-08-16T15:58:55.666Z,49.40
2022-08-16T16:01:41.248Z,49.30
2022-08-16T16:04:28.510Z,48.80
2022-08-16T16:07:14.039Z,49.30
2022-08-16T16:10:00.330Z,49.20
2022-08-16T16:12:50.431Z,49.40
2022-08-16T16:15:42.056Z,49.20
2022-08-16T16:18:29.939Z,48.90
2022-08-16T16:21:20.421Z,48.70
2022-08-16T16:24:21.332Z,48.50
2022-08-16T16:27:09.809Z,48.00
2022-08-16T16:30:01.589Z,48.00
2022-08-16T16:32:47.380Z,47.90
2022-08-16T16:35:34.935Z,47.60
2022-08-16T16:38:20.419Z,47.80
2022-08-16T16:41:09.349Z,47.20
2022-08-16T16:43:56.656Z,47.40
2022-08-16T16:46:43.536Z,47.90
2022-08-16T16:49:29.107Z,47.80
2022-08-16T16:52:43.376Z,47.90
2022-08-16T16:55:22.112Z,48.30
2022-08-16T16:58:36.373Z,48.30
2022-08-16T17:02:00.061Z,48.40
2022-08-16T17:04:49.124Z,48.50
2022-08-16T17:07:34.383Z,48.50
2022-08-16T17:10:46.304Z,48.20
2022-08-16T17:13:28.861Z,48.70
2022-08-16T17:16:18.503Z,48.60
2022-08-16T17:19:17.322Z,48.10
2022-08-16T17:22:05.286Z,48.40
2022-08-16T17:24:54.729Z,48.60
2022-08-16T17:27:40.231Z,48.60
2022-08-16T17:30:44.600Z,48.60
2022-08-16T17:33:36.762Z,48.60
2022-08-16T17:39:27.264Z,48.60
2022-08-16T17:39:29.924Z,48.90
2022-08-16T17:42:17.884Z,48.80
2022-08-16T17:45:04.326Z,49.00
2022-08-16T17:47:50.391Z,49.70
2022-08-16T17:50:36.080Z,50.00
2022-08-16T17:53:21.745Z,50.30
2022-08-16T17:56:07.178Z,49.80
2022-08-16T17:58:52.588Z,51.10
2022-08-16T18:01:37.967Z,51.50
2022-08-16T18:04:48.281Z,52.40
2022-08-16T18:07:30.194Z,52.70
2022-08-16T18:10:32.758Z,53.30
2022-08-16T18:13:21.189Z,53.10
2022-08-16T18:16:07.296Z,53.90
2022-08-16T18:18:52.864Z,54.20
2022-08-16T18:21:56.829Z,53.90
2022-08-16T18:24:42.070Z,54.20
2022-08-16T18:27:29.586Z,54.60
2022-08-16T18:30:17.536Z,54.80
2022-08-16T18:33:03.408Z,54.90
2022-08-16T18:35:51.229Z,54.90
2022-08-16T18:38:39.496Z,54.80
2022-08-16T18:41:26.414Z,55.00
2022-08-16T18:44:26.273Z,55.30
2022-08-16T18:47:13.404Z,55.50
2022-08-16T18:49:59.652Z,55.80
2022-08-16T18:53:02.197Z,55.80
2022-08-16T18:55:47.884Z,55.70
2022-08-16T18:58:33.876Z,55.70
2022-08-16T19:01:19.878Z,56.10
2022-08-16T19:04:05.232Z,56.40
2022-08-16T19:07:10.335Z,56.50
2022-08-16T19:09:56.005Z,57.00
2022-08-16T19:12:42.393Z,56.30
2022-08-16T19:15:28.769Z,56.40
2022-08-16T19:18:14.835Z,57.20
2022-08-16T19:21:00.288Z,57.40
2022-08-16T19:23:45.894Z,57.20
2022-08-16T19:26:33.804Z,57.40
2022-08-16T19:29:19.054Z,57.20
2022-08-16T19:32:14.794Z,57.00
2022-08-16T19:35:00.867Z,57.70
2022-08-16T19:37:46.861Z,57.90
2022-08-16T19:40:38.298Z,58.20
2022-08-16T19:43:23.710Z,58.20
2022-08-16T19:46:09.148Z,57.90
2022-08-16T19:48:54.539Z,58.50
2022-08-16T19:51:39.996Z,58.70
2022-08-16T19:54:25.425Z,58.10
2022-08-16T19:57:12.038Z,58.70
2022-08-16T19:59:58.620Z,58.70
2022-08-16T20:02:54.211Z,58.70
2022-08-16T20:05:41.304Z,59.60
2022-08-16T20:08:26.312Z,59.20
2022-08-16T20:11:11.737Z,59.60
2022-08-16T20:13:57.646Z,59.40
2022-08-16T20:16:44.961Z,59.80
2022-08-16T20:19:36.033Z,59.80
2022-08-16T20:22:52.378Z,59.60
2022-08-16T20:25:34.975Z,59.50
2022-08-16T20:28:45.025Z,59.80
2022-08-16T20:31:32.688Z,59.90
2022-08-16T20:34:18.361Z,59.80
2022-08-16T20:37:06.032Z,59.70
2022-08-16T20:39:53.310Z,59.90
2022-08-16T20:43:19.088Z,60.00
2022-08-16T20:46:04.482Z,59.70
2022-08-16T20:48:49.886Z,60.00
2022-08-16T20:51:46.679Z,60.50
2022-08-16T20:54:36.295Z,61.10
2022-08-16T20:57:21.467Z,61.00
2022-08-16T21:00:08.931Z,60.80
2022-08-16T21:02:54.112Z,60.70
2022-08-16T21:05:39.872Z,60.90
2022-08-16T21:08:26.937Z,61.00
2022-08-16T21:11:31.581Z,61.10
2022-08-16T21:14:16.700Z,60.90
2022-08-16T21:17:04.375Z,61.10
2022-08-16T21:19:49.790Z,61.20
2022-08-16T21:22:36.160Z,61.60
2022-08-16T21:25:23.314Z,61.90
2022-08-16T21:28:41.621Z,61.70
2022-08-16T21:31:16.917Z,61.60
2022-08-16T21:34:02.660Z,61.80
2022-08-16T21:36:48.760Z,61.70
2022-08-16T21:39:34.729Z,62.00
2022-08-16T21:42:21.194Z,62.00
2022-08-16T21:45:08.374Z,62.50
2022-08-16T21:47:53.398Z,62.20
2022-08-16T21:50:40.345Z,62.50
2022-08-16T21:53:26.660Z,62.70
2022-08-16T21:56:15.479Z,63.10
2022-08-16T21:59:07.003Z,62.80
2022-08-16T22:01:52.672Z,63.10
2022-08-16T22:04:39.275Z,63.40
2022-08-16T22:07:24.576Z,62.90
2022-08-16T22:11:06.449Z,63.00
2022-08-16T22:13:22.392Z,63.60
2022-08-16T22:16:07.842Z,63.90
2022-08-16T22:18:53.091Z,63.70
2022-08-16T22:21:38.472Z,63.70
2022-08-16T22:24:23.847Z,63.90
2022-08-16T22:27:09.225Z,64.00
2022-08-16T22:29:58.340Z,63.70
2022-08-16T22:32:44.541Z,63.50
2022-08-16T22:35:29.931Z,63.80
2022-08-16T22:38:55.490Z,64.30
2022-08-16T22:41:21.960Z,63.50
2022-08-16T22:44:08.175Z,63.30
2022-08-16T22:46:53.571Z,63.20
2022-08-16T22:49:38.813Z,62.90
2022-08-16T22:52:46.386Z,62.40
2022-08-16T22:55:30.022Z,62.50
2022-08-16T22:58:15.439Z,62.80
2022-08-16T23:01:00.904Z,63.30
2022-08-16T23:03:46.336Z,63.60
2022-08-16T23:06:31.635Z,63.70
2022-08-16T23:09:17.188Z,63.50
2022-08-16T23:12:03.920Z,63.30
2022-08-16T23:14:48.992Z,63.00
2022-08-16T23:17:40.068Z,63.30
2022-08-16T23:20:28.762Z,63.20
2022-08-16T23:23:19.042Z,63.90
2022-08-16T23:26:46.370Z,64.20
2022-08-16T23:29:22.287Z,64.30
2022-08-16T23:32:11.820Z,64.20
2022-08-16T23:34:56.777Z,63.90
2022-08-16T23:37:43.811Z,63.90
2022-08-16T23:40:30.232Z,64.10
2022-08-16T23:43:18.948Z,64.00
2022-08-16T23:46:06.669Z,63.90
2022-08-16T23:49:56.683Z,64.10
2022-08-16T23:51:57.942Z,64.30
2022-08-16T23:54:42.916Z,64.00
2022-08-16T23:57:28.397Z,64.10
